Terminal Aerodrome Forecast
Issued by NWS

Current Version | Previous Version | Graphics & Text | Print | Product List | Glossary On
Versions: 1 2 3 4 5 6 7 8 9 10 11 12 13 14 15 16 17 18 19
000
FTUS41 KRNK 212320
TAFLWB
TAF
KLWB 212320Z 2200/2224 00000KT P6SM SKC
     FM220800 00000KT 2SM BR SCT001 BKN250
      TEMPO 2208/2212 1/2SM FG BKN001
     FM221330 VRB03KT P6SM BKN250=

USA.gov is the U.S. government's official web portal to all federal, state and local government web resources and services.